La Seu — EA7477 — position and weather

sailwx.info

Track history (hours):
 
Tides and Currents Weather Stations Pressure Air Temp Water Temp Dewpoint Dewpoint Depression Visibility Wind Speed Wind Dir Waves Ship Positions

La Seu

Last reported at 2017-Nov-24 14:23 UTC. Time now 2017-Nov-24 14:55 UTC.
Position N 41°13' E 001°44'.

Length 20 m.

Type: Fishing. MMSI: 224010950.

Date/timePositionNaut miles runAvg speedWind from/ knotsBaromVisibWave heightAir tempDewpointWater temp
2017-Nov-24 14:23N 41°13' E 001°44'0 0.7
2017-Nov-24 14:00N 41°13' E 001°44'4 8.9
2017-Nov-24 13:30N 41°10' E 001°49'510.2
2017-Nov-24 13:00N 41°07' E 001°54'2 4.7
2017-Nov-24 12:30N 41°06' E 001°57'1 1.2
2017-Nov-24 12:00N 41°05' E 001°57'1 2.7
2017-Nov-24 11:28N 41°05' E 001°59'1 3.0
2017-Nov-24 11:00N 41°05' E 002°01'1 2.1
2017-Nov-24 10:31N 41°06' E 002°02'1 2.8
2017-Nov-24 10:01N 41°06' E 002°04'2 1.7
2017-Nov-24 08:52N 41°08' E 002°04'2 2.8
2017-Nov-24 08:09N 41°07' E 002°01'1 2.9
2017-Nov-24 07:58N 41°07' E 002°01'1 2.8
2017-Nov-24 07:31N 41°06' E 001°59'1 2.9
2017-Nov-24 07:00N 41°06' E 001°57'4 8.3
2017-Nov-24 06:30N 41°08' E 001°53'510.6
2017-Nov-24 06:01N 41°11' E 001°47'3 6.3
2017-Nov-24 05:31N 41°13' E 001°44'0 0.0
2017-Nov-23 15:07N 41°13' E 001°44'0 0.0
2017-Nov-23 15:00N 41°13' E 001°44'0 0.0
2017-Nov-23 14:31N 41°13' E 001°44'0 0.0
2017-Nov-23 14:01N 41°13' E 001°44'3 6.9
2017-Nov-23 13:30N 41°09' E 001°44'3 6.9
2017-Nov-23 13:00N 41°06' E 001°45'0 0.5
2017-Nov-23 12:30N 41°06' E 001°44'0 0.7
2017-Nov-23 12:01N 41°06' E 001°45'1 2.9
2017-Nov-23 11:31N 41°04' E 001°44'1 2.8
2017-Nov-23 11:00N 41°03' E 001°44'4 2.2
2017-Nov-23 08:58N 41°03' E 001°50'1 2.8
2017-Nov-23 08:31N 41°02' E 001°49'1 2.9
2017-Nov-23 08:00N 41°02' E 001°47'1 2.9
2017-Nov-23 07:30N 41°03' E 001°45'1 3.0
2017-Nov-23 06:59N 41°04' E 001°45'1 3.0
2017-Nov-23 06:30N 41°06' E 001°45'4 7.7
2017-Nov-23 06:00N 41°09' E 001°44'3 6.4
2017-Nov-23 05:30N 41°13' E 001°44'  
2017-Nov-17 14:32N 41°13' E 001°44'0 0.6
2017-Nov-17 14:30N 41°13' E 001°44'0 0.1
2017-Nov-17 14:00N 41°13' E 001°44'3 5.3
2017-Nov-17 13:30N 41°11' E 001°47'510.0
2017-Nov-17 13:00N 41°08' E 001°52'4 7.3
2017-Nov-17 12:29N 41°06' E 001°56'4 0.9
2017-Nov-17 08:06N 41°07' E 002°01'1 2.8
2017-Nov-17 07:44N 41°06' E 001°60'2 2.7
2017-Nov-17 07:08N 41°06' E 001°58'1 3.5
2017-Nov-17 06:59N 41°06' E 001°57'4 8.4
2017-Nov-17 06:30N 41°08' E 001°52'510.4
2017-Nov-17 06:00N 41°11' E 001°47'3 6.1
2017-Nov-17 05:30N 41°13' E 001°44'0 0.0
2017-Nov-16 15:02N 41°13' E 001°44'0 0.0
2017-Nov-16 15:00N 41°13' E 001°44'0 0.0
2017-Nov-16 14:30N 41°13' E 001°44'0 0.0
2017-Nov-16 14:00N 41°13' E 001°44'1 2.5
2017-Nov-16 13:30N 41°12' E 001°45'510.0
2017-Nov-16 13:00N 41°09' E 001°50'510.1
2017-Nov-16 12:29N 41°06' E 001°56'0 0.1
2017-Nov-16 06:50N 41°06' E 001°56'310.0
2017-Nov-16 06:30N 41°08' E 001°52'510.5
2017-Nov-16 06:00N 41°11' E 001°47'3 6.0
2017-Nov-16 05:30N 41°13' E 001°44'0 0.0
2017-Nov-15 14:09N 41°13' E 001°44'0 0.9
2017-Nov-15 14:00N 41°13' E 001°44'5 9.2
2017-Nov-15 13:30N 41°08' E 001°44'1 2.2
2017-Nov-15 13:00N 41°07' E 001°44'1 3.0
2017-Nov-15 12:30N 41°06' E 001°44'1 2.5
2017-Nov-15 12:00N 41°04' E 001°45'1 2.8
2017-Nov-15 11:30N 41°03' E 001°44'6 2.7
2017-Nov-15 09:25N 41°02' E 001°52'1 2.5
2017-Nov-15 08:59N 41°02' E 001°50'1 2.7
2017-Nov-15 08:31N 41°02' E 001°49'1 2.7
2017-Nov-15 08:01N 41°02' E 001°47'1 2.6
2017-Nov-15 07:27N 41°03' E 001°45'1 2.7
2017-Nov-15 06:58N 41°04' E 001°45'1 2.7
2017-Nov-15 06:30N 41°05' E 001°45'4 8.4
2017-Nov-15 06:01N 41°09' E 001°44'4 7.0
2017-Nov-15 05:31N 41°13' E 001°44'  
Track history (hours):
 
Tides and Currents Weather Stations Pressure Air Temp Water Temp Dewpoint Dewpoint Depression Visibility Wind Speed Wind Dir Waves Ship Positions

La Seu

Last reported at 2017-Nov-24 14:23 UTC. Time now 2017-Nov-24 14:55 UTC.
Position N 41°13' E 001°44'.

Length 20 m.

Type: Fishing. MMSI: 224010950.

Date/timePositionNaut miles runAvg speedWind from/ knotsBaromVisibWave heightAir tempDewpointWater temp
2017-Nov-24 14:23N 41°13' E 001°44'0 0.7
2017-Nov-24 14:00N 41°13' E 001°44'4 8.9
2017-Nov-24 13:30N 41°10' E 001°49'510.2
2017-Nov-24 13:00N 41°07' E 001°54'2 4.7
2017-Nov-24 12:30N 41°06' E 001°57'1 1.2
2017-Nov-24 12:00N 41°05' E 001°57'1 2.7
2017-Nov-24 11:28N 41°05' E 001°59'1 3.0
2017-Nov-24 11:00N 41°05' E 002°01'1 2.1
2017-Nov-24 10:31N 41°06' E 002°02'1 2.8
2017-Nov-24 10:01N 41°06' E 002°04'2 1.7
2017-Nov-24 08:52N 41°08' E 002°04'2 2.8
2017-Nov-24 08:09N 41°07' E 002°01'1 2.9
2017-Nov-24 07:58N 41°07' E 002°01'1 2.8
2017-Nov-24 07:31N 41°06' E 001°59'1 2.9
2017-Nov-24 07:00N 41°06' E 001°57'4 8.3
2017-Nov-24 06:30N 41°08' E 001°53'510.6
2017-Nov-24 06:01N 41°11' E 001°47'3 6.3
2017-Nov-24 05:31N 41°13' E 001°44'0 0.0
2017-Nov-23 15:07N 41°13' E 001°44'0 0.0
2017-Nov-23 15:00N 41°13' E 001°44'0 0.0
2017-Nov-23 14:31N 41°13' E 001°44'0 0.0
2017-Nov-23 14:01N 41°13' E 001°44'3 6.9
2017-Nov-23 13:30N 41°09' E 001°44'3 6.9
2017-Nov-23 13:00N 41°06' E 001°45'0 0.5
2017-Nov-23 12:30N 41°06' E 001°44'0 0.7
2017-Nov-23 12:01N 41°06' E 001°45'1 2.9
2017-Nov-23 11:31N 41°04' E 001°44'1 2.8
2017-Nov-23 11:00N 41°03' E 001°44'4 2.2
2017-Nov-23 08:58N 41°03' E 001°50'1 2.8
2017-Nov-23 08:31N 41°02' E 001°49'1 2.9
2017-Nov-23 08:00N 41°02' E 001°47'1 2.9
2017-Nov-23 07:30N 41°03' E 001°45'1 3.0
2017-Nov-23 06:59N 41°04' E 001°45'1 3.0
2017-Nov-23 06:30N 41°06' E 001°45'4 7.7
2017-Nov-23 06:00N 41°09' E 001°44'3 6.4
2017-Nov-23 05:30N 41°13' E 001°44'  
2017-Nov-17 14:32N 41°13' E 001°44'0 0.6
2017-Nov-17 14:30N 41°13' E 001°44'0 0.1
2017-Nov-17 14:00N 41°13' E 001°44'3 5.3
2017-Nov-17 13:30N 41°11' E 001°47'510.0
2017-Nov-17 13:00N 41°08' E 001°52'4 7.3
2017-Nov-17 12:29N 41°06' E 001°56'4 0.9
2017-Nov-17 08:06N 41°07' E 002°01'1 2.8
2017-Nov-17 07:44N 41°06' E 001°60'2 2.7
2017-Nov-17 07:08N 41°06' E 001°58'1 3.5
2017-Nov-17 06:59N 41°06' E 001°57'4 8.4
2017-Nov-17 06:30N 41°08' E 001°52'510.4
2017-Nov-17 06:00N 41°11' E 001°47'3 6.1
2017-Nov-17 05:30N 41°13' E 001°44'0 0.0
2017-Nov-16 15:02N 41°13' E 001°44'0 0.0
2017-Nov-16 15:00N 41°13' E 001°44'0 0.0
2017-Nov-16 14:30N 41°13' E 001°44'0 0.0
2017-Nov-16 14:00N 41°13' E 001°44'1 2.5
2017-Nov-16 13:30N 41°12' E 001°45'510.0
2017-Nov-16 13:00N 41°09' E 001°50'510.1
2017-Nov-16 12:29N 41°06' E 001°56'0 0.1
2017-Nov-16 06:50N 41°06' E 001°56'310.0
2017-Nov-16 06:30N 41°08' E 001°52'510.5
2017-Nov-16 06:00N 41°11' E 001°47'3 6.0
2017-Nov-16 05:30N 41°13' E 001°44'0 0.0
2017-Nov-15 14:09N 41°13' E 001°44'0 0.9
2017-Nov-15 14:00N 41°13' E 001°44'5 9.2
2017-Nov-15 13:30N 41°08' E 001°44'1 2.2
2017-Nov-15 13:00N 41°07' E 001°44'1 3.0
2017-Nov-15 12:30N 41°06' E 001°44'1 2.5
2017-Nov-15 12:00N 41°04' E 001°45'1 2.8
2017-Nov-15 11:30N 41°03' E 001°44'6 2.7
2017-Nov-15 09:25N 41°02' E 001°52'1 2.5
2017-Nov-15 08:59N 41°02' E 001°50'1 2.7
2017-Nov-15 08:31N 41°02' E 001°49'1 2.7
2017-Nov-15 08:01N 41°02' E 001°47'1 2.6
2017-Nov-15 07:27N 41°03' E 001°45'1 2.7
2017-Nov-15 06:58N 41°04' E 001°45'1 2.7
2017-Nov-15 06:30N 41°05' E 001°45'4 8.4
2017-Nov-15 06:01N 41°09' E 001°44'4 7.0
2017-Nov-15 05:31N 41°13' E 001°44'  

Dump ship's entire track history